sensor_id;sensor_type;location;lat;lon;timestamp;temperature;humidity
21540;DHT22;10931;52.164;5.518;2022-11-02T00:02:30;22.00;75.70
21540;DHT22;10931;52.164;5.518;2022-11-02T00:05:26;22.00;75.60
21540;DHT22;10931;52.164;5.518;2022-11-02T00:07:57;22.00;75.70
21540;DHT22;10931;52.164;5.518;2022-11-02T00:10:56;22.00;75.60
21540;DHT22;10931;52.164;5.518;2022-11-02T00:13:28;22.00;75.70
21540;DHT22;10931;52.164;5.518;2022-11-02T00:15:57;22.00;75.70
21540;DHT22;10931;52.164;5.518;2022-11-02T00:18:36;22.00;75.70
21540;DHT22;10931;52.164;5.518;2022-11-02T00:21:07;22.00;75.70
21540;DHT22;10931;52.164;5.518;2022-11-02T00:23:51;21.90;75.60
21540;DHT22;10931;52.164;5.518;2022-11-02T00:26:25;21.90;75.60
21540;DHT22;10931;52.164;5.518;2022-11-02T00:29:12;21.90;75.50
21540;DHT22;10931;52.164;5.518;2022-11-02T00:31:37;21.90;75.50
21540;DHT22;10931;52.164;5.518;2022-11-02T00:34:14;21.90;75.80
21540;DHT22;10931;52.164;5.518;2022-11-02T00:36:57;21.90;75.60
21540;DHT22;10931;52.164;5.518;2022-11-02T00:39:33;21.90;75.60
21540;DHT22;10931;52.164;5.518;2022-11-02T00:42:07;21.90;75.50
21540;DHT22;10931;52.164;5.518;2022-11-02T00:44:40;21.90;75.60
21540;DHT22;10931;52.164;5.518;2022-11-02T00:47:08;21.90;75.60
21540;DHT22;10931;52.164;5.518;2022-11-02T00:49:54;21.90;75.50
21540;DHT22;10931;52.164;5.518;2022-11-02T00:52:25;21.90;75.50
21540;DHT22;10931;52.164;5.518;2022-11-02T00:54:57;21.80;75.50
21540;DHT22;10931;52.164;5.518;2022-11-02T00:57:44;21.90;75.50
21540;DHT22;10931;52.164;5.518;2022-11-02T01:00:30;21.80;75.50
21540;DHT22;10931;52.164;5.518;2022-11-02T01:03:00;21.80;75.50
21540;DHT22;10931;52.164;5.518;2022-11-02T01:05:34;21.80;75.50
21540;DHT22;10931;52.164;5.518;2022-11-02T01:08:26;21.80;75.50
21540;DHT22;10931;52.164;5.518;2022-11-02T01:11:15;21.80;75.50
21540;DHT22;10931;52.164;5.518;2022-11-02T01:13:52;21.80;75.50
21540;DHT22;10931;52.164;5.518;2022-11-02T01:19:41;21.80;75.50
21540;DHT22;10931;52.164;5.518;2022-11-02T01:22:06;21.80;75.40
21540;DHT22;10931;52.164;5.518;2022-11-02T01:24:35;21.70;75.40
21540;DHT22;10931;52.164;5.518;2022-11-02T01:27:04;21.70;75.40
21540;DHT22;10931;52.164;5.518;2022-11-02T01:29:29;21.80;75.50
21540;DHT22;10931;52.164;5.518;2022-11-02T01:53:33;21.70;75.30
21540;DHT22;10931;52.164;5.518;2022-11-02T02:45:43;21.50;75.20
21540;DHT22;10931;52.164;5.518;2022-11-02T02:48:50;21.50;75.20
21540;DHT22;10931;52.164;5.518;2022-11-02T02:52:15;21.50;75.20
21540;DHT22;10931;52.164;5.518;2022-11-02T04:19:32;21.20;74.90
21540;DHT22;10931;52.164;5.518;2022-11-02T04:39:45;21.10;74.80
21540;DHT22;10931;52.164;5.518;2022-11-02T05:15:23;21.00;74.70
21540;DHT22;10931;52.164;5.518;2022-11-02T05:18:20;21.00;74.60
21540;DHT22;10931;52.164;5.518;2022-11-02T05:28:02;21.00;74.60
21540;DHT22;10931;52.164;5.518;2022-11-02T05:31:01;21.00;74.60
21540;DHT22;10931;52.164;5.518;2022-11-02T05:33:45;21.00;74.70
21540;DHT22;10931;52.164;5.518;2022-11-02T05:40:15;21.00;74.70
21540;DHT22;10931;52.164;5.518;2022-11-02T05:46:15;21.00;74.70
21540;DHT22;10931;52.164;5.518;2022-11-02T06:04:55;20.90;74.60
21540;DHT22;10931;52.164;5.518;2022-11-02T06:07:54;20.90;74.60
21540;DHT22;10931;52.164;5.518;2022-11-02T06:10:45;20.90;74.60
21540;DHT22;10931;52.164;5.518;2022-11-02T06:13:33;20.90;74.60
21540;DHT22;10931;52.164;5.518;2022-11-02T06:19:07;20.90;74.60
21540;DHT22;10931;52.164;5.518;2022-11-02T06:21:49;20.90;74.60
21540;DHT22;10931;52.164;5.518;2022-11-02T06:24:18;20.90;74.60
21540;DHT22;10931;52.164;5.518;2022-11-02T06:27:14;20.90;74.60
21540;DHT22;10931;52.164;5.518;2022-11-02T06:30:05;20.80;74.60
21540;DHT22;10931;52.164;5.518;2022-11-02T06:32:51;20.90;74.60
21540;DHT22;10931;52.164;5.518;2022-11-02T06:35:18;20.80;74.60
21540;DHT22;10931;52.164;5.518;2022-11-02T06:38:09;20.80;74.60
21540;DHT22;10931;52.164;5.518;2022-11-02T06:40:40;20.80;74.60
21540;DHT22;10931;52.164;5.518;2022-11-02T06:43:08;20.80;74.60
21540;DHT22;10931;52.164;5.518;2022-11-02T06:45:52;20.80;74.60
21540;DHT22;10931;52.164;5.518;2022-11-02T06:51:50;20.80;74.60
21540;DHT22;10931;52.164;5.518;2022-11-02T06:54:22;20.80;74.60
21540;DHT22;10931;52.164;5.518;2022-11-02T06:56:51;20.80;74.60
21540;DHT22;10931;52.164;5.518;2022-11-02T06:59:17;20.80;74.60
21540;DHT22;10931;52.164;5.518;2022-11-02T07:01:50;20.80;74.60
21540;DHT22;10931;52.164;5.518;2022-11-02T07:04:20;20.80;74.60
21540;DHT22;10931;52.164;5.518;2022-11-02T07:06:47;20.80;74.60
21540;DHT22;10931;52.164;5.518;2022-11-02T07:09:14;20.80;74.60
21540;DHT22;10931;52.164;5.518;2022-11-02T07:11:40;20.70;74.50
21540;DHT22;10931;52.164;5.518;2022-11-02T07:14:33;20.80;74.60
21540;DHT22;10931;52.164;5.518;2022-11-02T07:16:59;20.70;74.50
21540;DHT22;10931;52.164;5.518;2022-11-02T07:19:25;20.70;74.50
21540;DHT22;10931;52.164;5.518;2022-11-02T07:21:50;20.70;74.50
21540;DHT22;10931;52.164;5.518;2022-11-02T07:24:18;20.70;74.50
21540;DHT22;10931;52.164;5.518;2022-11-02T07:26:47;20.70;74.50
21540;DHT22;10931;52.164;5.518;2022-11-02T07:29:14;20.70;74.50
21540;DHT22;10931;52.164;5.518;2022-11-02T07:31:40;20.70;74.50
21540;DHT22;10931;52.164;5.518;2022-11-02T07:34:05;20.70;74.50
21540;DHT22;10931;52.164;5.518;2022-11-02T07:36:31;20.70;74.50
21540;DHT22;10931;52.164;5.518;2022-11-02T07:38:59;20.70;74.50
21540;DHT22;10931;52.164;5.518;2022-11-02T07:41:25;20.70;74.50
21540;DHT22;10931;52.164;5.518;2022-11-02T07:43:53;20.70;74.50
21540;DHT22;10931;52.164;5.518;2022-11-02T07:46:19;20.70;74.50
21540;DHT22;10931;52.164;5.518;2022-11-02T07:48:47;20.70;74.50
21540;DHT22;10931;52.164;5.518;2022-11-02T07:51:15;20.70;74.60
21540;DHT22;10931;52.164;5.518;2022-11-02T07:53:41;20.60;74.50
21540;DHT22;10931;52.164;5.518;2022-11-02T07:56:10;20.60;74.50
21540;DHT22;10931;52.164;5.518;2022-11-02T07:58:38;20.60;74.50
21540;DHT22;10931;52.164;5.518;2022-11-02T08:01:06;20.70;74.50
21540;DHT22;10931;52.164;5.518;2022-11-02T08:03:32;20.60;74.50
21540;DHT22;10931;52.164;5.518;2022-11-02T08:06:00;20.60;74.50
21540;DHT22;10931;52.164;5.518;2022-11-02T08:08:37;20.60;74.50
21540;DHT22;10931;52.164;5.518;2022-11-02T08:11:05;20.60;74.50
21540;DHT22;10931;52.164;5.518;2022-11-02T08:13:31;20.60;74.60
21540;DHT22;10931;52.164;5.518;2022-11-02T08:18:50;20.60;74.50
21540;DHT22;10931;52.164;5.518;2022-11-02T08:21:15;20.60;74.50
21540;DHT22;10931;52.164;5.518;2022-11-02T08:23:43;20.60;74.50
21540;DHT22;10931;52.164;5.518;2022-11-02T08:26:09;20.60;74.50
21540;DHT22;10931;52.164;5.518;2022-11-02T08:28:37;20.60;74.50
21540;DHT22;10931;52.164;5.518;2022-11-02T08:31:15;20.60;74.50
21540;DHT22;10931;52.164;5.518;2022-11-02T08:33:42;20.60;74.50
21540;DHT22;10931;52.164;5.518;2022-11-02T08:36:10;20.60;74.50
21540;DHT22;10931;52.164;5.518;2022-11-02T08:38:36;20.60;74.50
21540;DHT22;10931;52.164;5.518;2022-11-02T08:41:03;20.50;74.50
21540;DHT22;10931;52.164;5.518;2022-11-02T08:43:29;20.50;74.40
21540;DHT22;10931;52.164;5.518;2022-11-02T08:46:01;20.60;74.50
21540;DHT22;10931;52.164;5.518;2022-11-02T08:48:27;20.50;74.50
21540;DHT22;10931;52.164;5.518;2022-11-02T08:51:02;20.50;74.50
21540;DHT22;10931;52.164;5.518;2022-11-02T08:53:52;20.50;74.50
21540;DHT22;10931;52.164;5.518;2022-11-02T08:56:18;20.50;74.50
21540;DHT22;10931;52.164;5.518;2022-11-02T08:58:44;20.50;74.50
21540;DHT22;10931;52.164;5.518;2022-11-02T09:01:10;20.50;74.50
21540;DHT22;10931;52.164;5.518;2022-11-02T09:03:38;20.50;74.50
21540;DHT22;10931;52.164;5.518;2022-11-02T09:06:03;20.50;74.50
21540;DHT22;10931;52.164;5.518;2022-11-02T09:08:29;20.50;74.50
21540;DHT22;10931;52.164;5.518;2022-11-02T09:11:00;20.50;74.50
21540;DHT22;10931;52.164;5.518;2022-11-02T09:13:26;20.50;74.50
21540;DHT22;10931;52.164;5.518;2022-11-02T09:15:54;20.50;75.30
21540;DHT22;10931;52.164;5.518;2022-11-02T09:18:20;20.50;74.50
21540;DHT22;10931;52.164;5.518;2022-11-02T09:20:49;20.50;74.50
21540;DHT22;10931;52.164;5.518;2022-11-02T09:23:19;20.50;74.50
21540;DHT22;10931;52.164;5.518;2022-11-02T09:25:48;20.50;74.50
21540;DHT22;10931;52.164;5.518;2022-11-02T09:28:14;20.50;74.50
21540;DHT22;10931;52.164;5.518;2022-11-02T09:30:49;20.50;74.50
21540;DHT22;10931;52.164;5.518;2022-11-02T09:33:24;20.50;74.50
21540;DHT22;10931;52.164;5.518;2022-11-02T09:35:52;20.50;74.50
21540;DHT22;10931;52.164;5.518;2022-11-02T09:38:22;20.50;74.50
21540;DHT22;10931;52.164;5.518;2022-11-02T09:45:04;20.50;74.50
21540;DHT22;10931;52.164;5.518;2022-11-02T09:47:33;20.50;74.50
21540;DHT22;10931;52.164;5.518;2022-11-02T09:50:16;20.40;74.30
21540;DHT22;10931;52.164;5.518;2022-11-02T09:52:45;20.50;74.50
21540;DHT22;10931;52.164;5.518;2022-11-02T09:55:20;20.40;74.40
21540;DHT22;10931;52.164;5.518;2022-11-02T09:57:51;20.50;74.50
21540;DHT22;10931;52.164;5.518;2022-11-02T10:00:19;20.40;74.40
21540;DHT22;10931;52.164;5.518;2022-11-02T10:03:08;20.40;74.30
21540;DHT22;10931;52.164;5.518;2022-11-02T10:05:51;20.50;74.40
21540;DHT22;10931;52.164;5.518;2022-11-02T10:08:50;20.40;74.30
21540;DHT22;10931;52.164;5.518;2022-11-02T10:14:17;20.40;74.30
21540;DHT22;10931;52.164;5.518;2022-11-02T10:16:52;20.40;74.30
21540;DHT22;10931;52.164;5.518;2022-11-02T10:19:19;20.40;74.30
21540;DHT22;10931;52.164;5.518;2022-11-02T10:21:47;20.50;74.30
21540;DHT22;10931;52.164;5.518;2022-11-02T10:24:33;20.50;74.30
21540;DHT22;10931;52.164;5.518;2022-11-02T10:27:18;20.50;74.30
21540;DHT22;10931;52.164;5.518;2022-11-02T10:29:59;20.50;74.40
21540;DHT22;10931;52.164;5.518;2022-11-02T10:32:39;20.50;74.30
21540;DHT22;10931;52.164;5.518;2022-11-02T10:37:51;20.40;74.30
21540;DHT22;10931;52.164;5.518;2022-11-02T10:43:46;20.50;74.30
21540;DHT22;10931;52.164;5.518;2022-11-02T10:46:36;20.50;74.30
21540;DHT22;10931;52.164;5.518;2022-11-02T10:52:18;20.50;74.30
21540;DHT22;10931;52.164;5.518;2022-11-02T10:54:44;20.50;74.30
21540;DHT22;10931;52.164;5.518;2022-11-02T10:57:14;20.50;74.30
21540;DHT22;10931;52.164;5.518;2022-11-02T10:59:43;20.50;74.30
21540;DHT22;10931;52.164;5.518;2022-11-02T11:02:10;20.50;74.20
21540;DHT22;10931;52.164;5.518;2022-11-02T11:04:39;20.50;74.20
21540;DHT22;10931;52.164;5.518;2022-11-02T11:07:16;20.50;74.20
21540;DHT22;10931;52.164;5.518;2022-11-02T11:09:49;20.50;74.20
21540;DHT22;10931;52.164;5.518;2022-11-02T11:12:37;20.50;74.20
21540;DHT22;10931;52.164;5.518;2022-11-02T11:15:03;20.50;74.20
21540;DHT22;10931;52.164;5.518;2022-11-02T11:19:59;20.50;74.20
21540;DHT22;10931;52.164;5.518;2022-11-02T11:27:57;20.60;74.20
21540;DHT22;10931;52.164;5.518;2022-11-02T11:30:31;20.60;74.20
21540;DHT22;10931;52.164;5.518;2022-11-02T11:33:01;20.60;74.20
21540;DHT22;10931;52.164;5.518;2022-11-02T11:35:34;20.60;74.20
21540;DHT22;10931;52.164;5.518;2022-11-02T11:38:13;20.60;74.20
21540;DHT22;10931;52.164;5.518;2022-11-02T11:40:43;20.70;74.20
21540;DHT22;10931;52.164;5.518;2022-11-02T11:43:14;20.70;74.20
21540;DHT22;10931;52.164;5.518;2022-11-02T11:45:56;20.70;74.20
21540;DHT22;10931;52.164;5.518;2022-11-02T11:51:01;20.70;74.20
21540;DHT22;10931;52.164;5.518;2022-11-02T11:53:30;20.70;74.20
21540;DHT22;10931;52.164;5.518;2022-11-02T11:55:58;20.70;74.20
21540;DHT22;10931;52.164;5.518;2022-11-02T11:58:32;20.80;74.20
21540;DHT22;10931;52.164;5.518;2022-11-02T12:03:55;20.80;74.20
21540;DHT22;10931;52.164;5.518;2022-11-02T12:09:21;20.90;74.20
21540;DHT22;10931;52.164;5.518;2022-11-02T12:11:56;20.90;74.20
21540;DHT22;10931;52.164;5.518;2022-11-02T12:48:07;21.00;74.00
21540;DHT22;10931;52.164;5.518;2022-11-02T12:59:33;21.10;74.30
21540;DHT22;10931;52.164;5.518;2022-11-02T13:02:31;21.20;74.40
21540;DHT22;10931;52.164;5.518;2022-11-02T13:05:25;21.20;74.50
21540;DHT22;10931;52.164;5.518;2022-11-02T13:11:34;21.30;74.60
21540;DHT22;10931;52.164;5.518;2022-11-02T13:14:23;21.30;74.70
21540;DHT22;10931;52.164;5.518;2022-11-02T13:17:22;21.40;74.70
21540;DHT22;10931;52.164;5.518;2022-11-02T13:23:46;21.40;74.80
21540;DHT22;10931;52.164;5.518;2022-11-02T13:34:51;21.60;75.00
21540;DHT22;10931;52.164;5.518;2022-11-02T13:41:47;21.70;75.00
21540;DHT22;10931;52.164;5.518;2022-11-02T13:47:11;21.70;75.00
21540;DHT22;10931;52.164;5.518;2022-11-02T13:49:54;21.70;75.00
21540;DHT22;10931;52.164;5.518;2022-11-02T13:52:50;21.80;75.00
21540;DHT22;10931;52.164;5.518;2022-11-02T13:55:49;21.80;75.00
21540;DHT22;10931;52.164;5.518;2022-11-02T13:58:45;21.90;75.80
21540;DHT22;10931;52.164;5.518;2022-11-02T14:01:16;21.90;75.00
21540;DHT22;10931;52.164;5.518;2022-11-02T14:06:18;21.90;75.70
21540;DHT22;10931;52.164;5.518;2022-11-02T14:08:54;22.00;74.90
21540;DHT22;10931;52.164;5.518;2022-11-02T14:11:24;22.00;74.90
21540;DHT22;10931;52.164;5.518;2022-11-02T14:50:05;22.10;74.60
21540;DHT22;10931;52.164;5.518;2022-11-02T14:53:22;22.10;74.60
21540;DHT22;10931;52.164;5.518;2022-11-02T14:56:04;22.10;74.60
21540;DHT22;10931;52.164;5.518;2022-11-02T14:58:40;22.10;74.60
21540;DHT22;10931;52.164;5.518;2022-11-02T15:01:46;22.10;74.60
21540;DHT22;10931;52.164;5.518;2022-11-02T15:26:46;22.20;74.70
21540;DHT22;10931;52.164;5.518;2022-11-02T15:29:42;22.20;74.70
21540;DHT22;10931;52.164;5.518;2022-11-02T15:35:32;22.20;74.70
21540;DHT22;10931;52.164;5.518;2022-11-02T15:56:42;22.30;74.80
21540;DHT22;10931;52.164;5.518;2022-11-02T16:02:40;22.40;74.90
21540;DHT22;10931;52.164;5.518;2022-11-02T16:05:24;22.40;74.90
21540;DHT22;10931;52.164;5.518;2022-11-02T16:08:34;22.40;74.90
21540;DHT22;10931;52.164;5.518;2022-11-02T16:27:11;22.50;74.90
21540;DHT22;10931;52.164;5.518;2022-11-02T16:29:51;22.50;74.90
21540;DHT22;10931;52.164;5.518;2022-11-02T16:35:07;22.40;74.80
21540;DHT22;10931;52.164;5.518;2022-11-02T16:37:40;22.50;74.90
21540;DHT22;10931;52.164;5.518;2022-11-02T16:40:15;22.40;74.80
21540;DHT22;10931;52.164;5.518;2022-11-02T16:42:47;22.40;75.10
21540;DHT22;10931;52.164;5.518;2022-11-02T16:45:37;22.40;74.80
21540;DHT22;10931;52.164;5.518;2022-11-02T16:48:29;22.50;74.90
21540;DHT22;10931;52.164;5.518;2022-11-02T17:01:00;22.40;74.70
21540;DHT22;10931;52.164;5.518;2022-11-02T17:16:33;22.40;74.60
21540;DHT22;10931;52.164;5.518;2022-11-02T17:28:54;22.30;74.50
21540;DHT22;10931;52.164;5.518;2022-11-02T17:31:55;22.30;74.50
21540;DHT22;10931;52.164;5.518;2022-11-02T17:38:07;22.30;74.50
21540;DHT22;10931;52.164;5.518;2022-11-02T17:40:46;22.30;74.50
21540;DHT22;10931;52.164;5.518;2022-11-02T17:43:20;22.30;74.50
21540;DHT22;10931;52.164;5.518;2022-11-02T17:45:59;22.30;74.50
21540;DHT22;10931;52.164;5.518;2022-11-02T17:51:11;22.20;74.40
21540;DHT22;10931;52.164;5.518;2022-11-02T17:56:26;22.20;74.40
21540;DHT22;10931;52.164;5.518;2022-11-02T17:59:08;22.20;74.40
21540;DHT22;10931;52.164;5.518;2022-11-02T18:15:48;22.20;74.40
21540;DHT22;10931;52.164;5.518;2022-11-02T18:21:12;22.10;74.40
21540;DHT22;10931;52.164;5.518;2022-11-02T18:24:04;22.10;74.40
21540;DHT22;10931;52.164;5.518;2022-11-02T18:29:32;22.10;74.40
21540;DHT22;10931;52.164;5.518;2022-11-02T18:32:17;22.10;74.40
21540;DHT22;10931;52.164;5.518;2022-11-02T18:35:16;22.20;74.50
21540;DHT22;10931;52.164;5.518;2022-11-02T18:38:23;22.10;74.40
21540;DHT22;10931;52.164;5.518;2022-11-02T18:41:09;22.20;74.50
21540;DHT22;10931;52.164;5.518;2022-11-02T18:44:01;22.20;74.60
21540;DHT22;10931;52.164;5.518;2022-11-02T18:50:38;22.20;74.60
21540;DHT22;10931;52.164;5.518;2022-11-02T18:53:09;22.20;74.60
21540;DHT22;10931;52.164;5.518;2022-11-02T18:55:40;22.20;74.60
21540;DHT22;10931;52.164;5.518;2022-11-02T18:58:41;22.20;74.70
21540;DHT22;10931;52.164;5.518;2022-11-02T19:03:57;22.20;74.70
21540;DHT22;10931;52.164;5.518;2022-11-02T19:06:49;22.30;74.70
21540;DHT22;10931;52.164;5.518;2022-11-02T19:10:05;22.30;74.70
21540;DHT22;10931;52.164;5.518;2022-11-02T19:13:01;22.30;74.70
21540;DHT22;10931;52.164;5.518;2022-11-02T19:15:54;22.30;74.70
21540;DHT22;10931;52.164;5.518;2022-11-02T19:18:35;22.30;74.70
21540;DHT22;10931;52.164;5.518;2022-11-02T19:21:21;22.30;74.70
21540;DHT22;10931;52.164;5.518;2022-11-02T19:24:29;22.30;74.70
21540;DHT22;10931;52.164;5.518;2022-11-02T19:27:48;22.30;74.70
21540;DHT22;10931;52.164;5.518;2022-11-02T19:30:36;22.30;74.60
21540;DHT22;10931;52.164;5.518;2022-11-02T19:33:46;22.30;74.60
21540;DHT22;10931;52.164;5.518;2022-11-02T19:36:47;22.30;74.50
21540;DHT22;10931;52.164;5.518;2022-11-02T19:39:22;22.30;75.30
21540;DHT22;10931;52.164;5.518;2022-11-02T19:49:03;22.20;74.40
21540;DHT22;10931;52.164;5.518;2022-11-02T20:30:45;22.00;74.10
21540;DHT22;10931;52.164;5.518;2022-11-02T20:34:06;22.00;74.10
21540;DHT22;10931;52.164;5.518;2022-11-02T20:36:56;22.00;74.10
21540;DHT22;10931;52.164;5.518;2022-11-02T20:39:38;22.00;74.10
21540;DHT22;10931;52.164;5.518;2022-11-02T20:42:09;22.00;74.10
21540;DHT22;10931;52.164;5.518;2022-11-02T20:44:50;21.90;74.10
21540;DHT22;10931;52.164;5.518;2022-11-02T20:50:48;21.90;74.00
21540;DHT22;10931;52.164;5.518;2022-11-02T20:57:16;21.90;74.00
21540;DHT22;10931;52.164;5.518;2022-11-02T20:59:56;21.90;74.10
21540;DHT22;10931;52.164;5.518;2022-11-02T21:05:40;21.90;74.00
21540;DHT22;10931;52.164;5.518;2022-11-02T21:08:50;21.90;74.00
21540;DHT22;10931;52.164;5.518;2022-11-02T21:11:38;21.80;74.00
21540;DHT22;10931;52.164;5.518;2022-11-02T21:14:33;21.80;73.90
21540;DHT22;10931;52.164;5.518;2022-11-02T21:17:06;21.80;73.90
21540;DHT22;10931;52.164;5.518;2022-11-02T21:20:00;21.80;73.90
21540;DHT22;10931;52.164;5.518;2022-11-02T21:23:06;21.80;73.90
21540;DHT22;10931;52.164;5.518;2022-11-02T21:25:48;21.70;74.70
21540;DHT22;10931;52.164;5.518;2022-11-02T23:56:57;21.10;73.60
